Time;durP1;ratioP1;P1;durP2;ratioP2;P2;SDS_P1;SDS_P2;PMS_P1;PMS_P2;Temp;Humidity;BMP_temperature;BMP_pressure;BME280_temperature;BME280_humidity;BME280_pressure;Samples;Min_cycle;Max_cycle;Signal;HPM_P1;HPM_P2
2022/02/19 00:02:12;;;;;;;2.67;2.10;;;;;;;;;;6215348;28;20232;-71
2022/02/19 00:05:33;;;;;;;4.97;2.27;;;;;;;;;;6212150;28;20236;-72
2022/02/19 00:08:53;;;;;;;8.53;3.53;;;;;;;;;;6211034;28;20614;-71
2022/02/19 00:12:14;;;;;;;7.03;2.63;;;;;;;;;;6215212;28;20229;-74
2022/02/19 00:15:34;;;;;;;8.37;2.17;;;;;;;;;;6217669;28;20229;-71
2022/02/19 00:18:56;;;;;;;4.47;2.13;;;;;;;;;;6212097;28;20237;-71
2022/02/19 00:22:17;;;;;;;5.33;2.03;;;;;;;;;;6213717;28;20225;-72
2022/02/19 00:25:37;;;;;;;8.07;2.50;;;;;;;;;;6208210;28;20281;-71
2022/02/19 00:28:58;;;;;;;6.90;2.47;;;;;;;;;;6215927;28;20291;-71
2022/02/19 00:32:19;;;;;;;10.77;3.07;;;;;;;;;;6205464;28;20893;-72
2022/02/19 00:35:40;;;;;;;8.30;2.87;;;;;;;;;;6204018;28;20623;-72
2022/02/19 00:39:02;;;;;;;7.73;2.50;;;;;;;;;;6199984;28;20770;-71
2022/02/19 00:42:24;;;;;;;4.40;1.80;;;;;;;;;;6191400;28;20226;-72
2022/02/19 00:45:45;;;;;;;7.23;2.30;;;;;;;;;;6211440;28;20226;-71
2022/02/19 00:49:05;;;;;;;9.60;3.27;;;;;;;;;;6202059;28;20225;-73
2022/02/19 00:52:27;;;;;;;10.53;2.40;;;;;;;;;;6189089;28;20591;-72
2022/02/19 00:55:48;;;;;;;3.93;1.93;;;;;;;;;;6189069;28;20223;-73
2022/02/19 00:59:09;;;;;;;8.07;2.10;;;;;;;;;;6208013;28;20225;-71
2022/02/19 01:02:29;;;;;;;11.03;2.60;;;;;;;;;;6173376;28;20244;-72
2022/02/19 01:05:56;;;;;;;7.07;2.70;;;;;;;;;;6199588;28;20542;-71
2022/02/19 01:09:19;;;;;;;6.30;2.50;;;;;;;;;;6202191;28;20320;-74
2022/02/19 01:12:40;;;;;;;7.93;3.97;;;;;;;;;;6188818;28;20229;-72
2022/02/19 01:16:01;;;;;;;10.80;3.90;;;;;;;;;;6219187;28;20225;-71
2022/02/19 01:19:22;;;;;;;15.40;4.33;;;;;;;;;;6210143;28;20249;-74
2022/02/19 01:22:42;;;;;;;6.47;2.30;;;;;;;;;;6191023;28;20229;-74
2022/02/19 01:26:04;;;;;;;8.03;2.37;;;;;;;;;;6215228;28;20647;-73
2022/02/19 01:29:25;;;;;;;7.43;3.33;;;;;;;;;;6215017;28;20260;-74
2022/02/19 01:32:46;;;;;;;6.27;3.47;;;;;;;;;;6192019;28;20315;-75
2022/02/19 01:36:07;;;;;;;6.67;2.03;;;;;;;;;;6208570;28;20319;-77
2022/02/19 01:39:29;;;;;;;3.53;2.53;;;;;;;;;;6216869;28;20233;-76
2022/02/19 01:42:52;;;;;;;8.50;3.30;;;;;;;;;;6179885;28;20320;-74
2022/02/19 01:46:17;;;;;;;7.50;2.60;;;;;;;;;;6202490;28;20315;-75
2022/02/19 01:49:39;;;;;;;11.23;3.23;;;;;;;;;;6198013;28;20233;-76
2022/02/19 01:53:01;;;;;;;4.53;2.20;;;;;;;;;;6213272;28;20600;-74
2022/02/19 01:56:31;;;;;;;7.53;2.40;;;;;;;;;;6208057;28;20256;-76
2022/02/19 02:00:10;;;;;;;9.30;3.03;;;;;;;;;;6193496;28;20286;-76
2022/02/19 02:03:48;;;;;;;7.17;2.10;;;;;;;;;;6217422;28;20593;-75
2022/02/19 02:07:19;;;;;;;6.80;1.90;;;;;;;;;;6198895;28;20229;-73
2022/02/19 02:10:40;;;;;;;8.93;2.83;;;;;;;;;;6199821;28;20237;-76
2022/02/19 02:14:07;;;;;;;6.23;2.40;;;;;;;;;;6202899;28;20236;-74
2022/02/19 02:17:50;;;;;;;6.57;2.13;;;;;;;;;;6177334;28;20510;-76
2022/02/19 02:21:11;;;;;;;8.20;1.63;;;;;;;;;;6202974;28;20252;-79
2022/02/19 02:24:34;;;;;;;5.73;2.37;;;;;;;;;;6215954;28;20233;-79
2022/02/19 02:27:56;;;;;;;6.67;1.97;;;;;;;;;;6213882;28;20314;-76
2022/02/19 02:31:16;;;;;;;9.67;1.90;;;;;;;;;;6201857;28;20233;-74
2022/02/19 02:34:47;;;;;;;3.13;1.77;;;;;;;;;;6195734;28;20225;-74
2022/02/19 02:38:09;;;;;;;5.30;2.37;;;;;;;;;;6196695;28;20796;-73
2022/02/19 02:41:31;;;;;;;11.60;3.47;;;;;;;;;;6198471;28;20666;-74
2022/02/19 02:44:58;;;;;;;7.53;2.17;;;;;;;;;;6195009;28;20268;-73
2022/02/19 02:48:18;;;;;;;12.07;3.20;;;;;;;;;;6212358;28;20263;-74
2022/02/19 02:51:40;;;;;;;11.60;3.10;;;;;;;;;;6212812;28;20240;-74
2022/02/19 02:55:00;;;;;;;12.53;3.33;;;;;;;;;;6206387;28;20236;-73
2022/02/19 02:58:23;;;;;;;11.57;3.20;;;;;;;;;;6199665;28;20229;-73
2022/02/19 03:01:47;;;;;;;8.77;3.17;;;;;;;;;;6197200;28;20221;-73
2022/02/19 03:05:09;;;;;;;15.00;4.63;;;;;;;;;;6198252;28;20233;-74
2022/02/19 03:08:30;;;;;;;13.80;4.27;;;;;;;;;;6211003;28;20232;-74
2022/02/19 03:11:50;;;;;;;11.10;3.47;;;;;;;;;;6207173;28;20229;-73
2022/02/19 03:15:15;;;;;;;9.57;2.93;;;;;;;;;;6203568;28;20324;-74
2022/02/19 03:18:35;;;;;;;14.03;5.00;;;;;;;;;;6204994;28;20659;-74
2022/02/19 03:21:56;;;;;;;10.57;3.40;;;;;;;;;;6198371;28;20615;-76
2022/02/19 03:25:17;;;;;;;13.63;6.23;;;;;;;;;;6216442;28;20509;-74
2022/02/19 03:28:39;;;;;;;10.17;3.07;;;;;;;;;;6197523;28;20230;-75
2022/02/19 03:32:05;;;;;;;9.43;2.93;;;;;;;;;;6199140;28;20233;-77
2022/02/19 03:35:26;;;;;;;11.70;2.63;;;;;;;;;;6204749;28;20662;-76
2022/02/19 03:38:46;;;;;;;8.67;2.40;;;;;;;;;;6201059;28;20505;-74
2022/02/19 03:42:20;;;;;;;6.77;1.93;;;;;;;;;;6197009;28;20233;-77
2022/02/19 03:45:43;;;;;;;4.30;3.10;;;;;;;;;;6207646;28;20225;-75
2022/02/19 03:49:40;;;;;;;0.83;0.60;;;;;;;;;;6123414;28;20236;-75
2022/02/19 03:53:01;;;;;;;1.27;1.03;;;;;;;;;;6197164;28;20229;-75
2022/02/19 03:56:28;;;;;;;1.40;0.50;;;;;;;;;;6193235;28;20222;-75
2022/02/19 03:59:54;;;;;;;5.00;1.53;;;;;;;;;;6204951;28;20241;-74
2022/02/19 04:03:15;;;;;;;2.27;1.23;;;;;;;;;;6217282;28;20276;-74
2022/02/19 04:06:38;;;;;;;3.70;1.70;;;;;;;;;;6209945;28;20253;-74
2022/02/19 04:09:59;;;;;;;5.80;1.30;;;;;;;;;;6196211;28;20241;-74
2022/02/19 04:13:23;;;;;;;3.37;1.23;;;;;;;;;;6199767;28;20232;-74
2022/02/19 04:17:02;;;;;;;6.87;1.40;;;;;;;;;;6217163;28;20236;-73
2022/02/19 04:20:24;;;;;;;9.07;2.13;;;;;;;;;;6203494;28;20237;-74
2022/02/19 04:23:46;;;;;;;6.03;2.27;;;;;;;;;;6201226;28;20981;-73
2022/02/19 04:27:07;;;;;;;2.83;1.23;;;;;;;;;;6214587;28;20226;-73
2022/02/19 04:30:30;;;;;;;5.83;2.10;;;;;;;;;;6208558;28;20233;-73
2022/02/19 04:33:54;;;;;;;3.77;2.93;;;;;;;;;;6208867;28;20233;-74
2022/02/19 04:37:15;;;;;;;7.33;2.17;;;;;;;;;;6203058;28;20233;-75
2022/02/19 04:40:38;;;;;;;7.27;2.07;;;;;;;;;;6199301;28;20225;-75
2022/02/19 04:43:59;;;;;;;7.17;1.60;;;;;;;;;;6194135;28;20237;-74
2022/02/19 04:47:20;;;;;;;6.53;2.00;;;;;;;;;;6201986;28;20237;-74
2022/02/19 04:50:42;;;;;;;3.07;1.50;;;;;;;;;;6197834;28;20618;-73
2022/02/19 04:54:03;;;;;;;4.07;1.40;;;;;;;;;;6201264;28;20248;-73
2022/02/19 04:57:28;;;;;;;4.37;1.73;;;;;;;;;;6198997;28;20240;-73
2022/02/19 05:00:49;;;;;;;2.87;1.40;;;;;;;;;;6214756;28;20229;-74
2022/02/19 05:04:17;;;;;;;3.93;1.90;;;;;;;;;;6217393;28;20531;-75
2022/02/19 05:07:57;;;;;;;2.93;1.03;;;;;;;;;;6205789;28;20315;-74
2022/02/19 05:11:18;;;;;;;5.23;1.63;;;;;;;;;;6206962;28;20323;-72
2022/02/19 05:14:44;;;;;;;7.33;2.00;;;;;;;;;;6199021;28;20233;-72
2022/02/19 05:18:23;;;;;;;8.23;2.33;;;;;;;;;;6209730;28;20221;-72
2022/02/19 05:21:43;;;;;;;6.67;1.53;;;;;;;;;;6201858;28;20248;-73
2022/02/19 05:25:07;;;;;;;2.83;1.73;;;;;;;;;;6201169;28;20634;-73
2022/02/19 05:28:29;;;;;;;7.23;1.70;;;;;;;;;;6191738;28;20241;-73
2022/02/19 05:31:53;;;;;;;7.40;3.13;;;;;;;;;;6205353;28;20237;-72
2022/02/19 05:35:26;;;;;;;6.53;1.97;;;;;;;;;;6201469;28;20312;-73
2022/02/19 05:38:47;;;;;;;5.93;2.03;;;;;;;;;;6212588;28;20232;-74
2022/02/19 05:42:08;;;;;;;6.33;2.53;;;;;;;;;;6198613;28;20229;-73
2022/02/19 05:45:29;;;;;;;6.07;2.27;;;;;;;;;;6212938;28;24776;-73
2022/02/19 05:48:52;;;;;;;5.23;2.70;;;;;;;;;;6198151;28;20756;-74
2022/02/19 05:52:36;;;;;;;5.33;2.00;;;;;;;;;;6202748;28;20623;-73
2022/02/19 05:56:10;;;;;;;2.57;1.40;;;;;;;;;;6213090;28;20316;-74
2022/02/19 05:59:31;;;;;;;5.80;1.33;;;;;;;;;;6201914;28;20237;-75
2022/02/19 06:02:52;;;;;;;3.13;1.13;;;;;;;;;;6203002;28;20308;-75
2022/02/19 06:06:15;;;;;;;3.90;1.40;;;;;;;;;;6195627;28;20257;-74
2022/02/19 06:09:36;;;;;;;4.37;1.20;;;;;;;;;;6202407;28;20233;-75
2022/02/19 06:12:58;;;;;;;4.47;0.90;;;;;;;;;;6202748;28;20233;-73
2022/02/19 06:16:25;;;;;;;4.33;1.30;;;;;;;;;;6214146;28;20325;-74
2022/02/19 06:20:04;;;;;;;4.10;1.20;;;;;;;;;;6199313;28;20706;-74
2022/02/19 06:23:27;;;;;;;1.77;0.77;;;;;;;;;;6197742;28;20509;-75
2022/02/19 06:26:47;;;;;;;2.33;0.93;;;;;;;;;;6194860;28;20316;-74
2022/02/19 06:30:14;;;;;;;3.70;1.53;;;;;;;;;;6204648;28;20233;-74
2022/02/19 06:33:44;;;;;;;3.13;1.13;;;;;;;;;;6197543;28;20275;-73
2022/02/19 06:37:05;;;;;;;1.63;0.90;;;;;;;;;;6195237;28;20226;-74
2022/02/19 06:40:27;;;;;;;2.00;1.23;;;;;;;;;;6197196;28;20316;-76
2022/02/19 06:43:48;;;;;;;3.03;0.80;;;;;;;;;;6199491;28;20237;-74
2022/02/19 06:47:08;;;;;;;3.40;0.97;;;;;;;;;;6215333;28;20875;-75
2022/02/19 06:50:29;;;;;;;1.60;0.80;;;;;;;;;;6197847;28;20233;-73
2022/02/19 06:53:56;;;;;;;1.10;0.73;;;;;;;;;;6197958;28;20583;-74
2022/02/19 06:57:21;;;;;;;3.87;0.60;;;;;;;;;;6198860;28;20229;-74
2022/02/19 07:00:42;;;;;;;2.10;0.73;;;;;;;;;;6212587;28;20233;-74
2022/02/19 07:04:04;;;;;;;1.87;0.80;;;;;;;;;;6201040;28;20531;-73
2022/02/19 07:07:43;;;;;;;2.43;1.00;;;;;;;;;;6216887;28;20295;-74
2022/02/19 07:11:04;;;;;;;4.00;0.90;;;;;;;;;;6203669;28;20233;-76
2022/02/19 07:14:27;;;;;;;3.57;1.13;;;;;;;;;;6196891;28;20609;-76
2022/02/19 07:17:50;;;;;;;1.93;1.37;;;;;;;;;;6198867;28;20233;-75
2022/02/19 07:21:12;;;;;;;4.07;1.03;;;;;;;;;;6198940;28;20304;-76
2022/02/19 07:24:32;;;;;;;2.53;1.13;;;;;;;;;;6194749;28;20276;-76
2022/02/19 07:27:53;;;;;;;3.90;1.10;;;;;;;;;;6200520;28;20229;-76
2022/02/19 07:31:16;;;;;;;3.07;1.33;;;;;;;;;;6213646;28;20286;-76
2022/02/19 07:34:38;;;;;;;3.43;1.27;;;;;;;;;;6200673;28;20240;-75
2022/02/19 07:37:58;;;;;;;4.23;1.43;;;;;;;;;;6204915;28;20977;-75
2022/02/19 07:41:19;;;;;;;4.97;2.33;;;;;;;;;;6195285;28;20221;-75
2022/02/19 07:44:56;;;;;;;5.53;1.77;;;;;;;;;;6204001;28;20795;-75
2022/02/19 07:48:36;;;;;;;7.77;2.63;;;;;;;;;;6212932;28;20551;-74
2022/02/19 07:59:49;;;;;;;5.70;1.20;;;;;;;;;;6203708;28;21968;-74
2022/02/19 08:03:10;;;;;;;5.70;1.40;;;;;;;;;;6204796;28;20331;-74
2022/02/19 08:06:33;;;;;;;5.60;1.23;;;;;;;;;;6204619;28;20244;-73
2022/02/19 08:09:53;;;;;;;3.80;2.07;;;;;;;;;;6207308;28;20251;-74
2022/02/19 08:13:14;;;;;;;2.40;1.33;;;;;;;;;;6204963;28;20598;-74
2022/02/19 08:16:35;;;;;;;8.57;2.70;;;;;;;;;;6213326;28;20236;-74
2022/02/19 08:19:56;;;;;;;1.20;1.07;;;;;;;;;;6218746;28;20234;-74
2022/02/19 08:23:18;;;;;;;1.70;0.80;;;;;;;;;;6208515;28;20229;-73
2022/02/19 08:26:39;;;;;;;4.13;1.30;;;;;;;;;;6216068;28;20253;-75
2022/02/19 08:29:59;;;;;;;2.40;0.80;;;;;;;;;;6217834;28;20237;-73
2022/02/19 08:33:20;;;;;;;4.83;1.70;;;;;;;;;;6202301;28;20233;-74
2022/02/19 08:36:41;;;;;;;1.77;0.80;;;;;;;;;;6217676;28;20248;-73
2022/02/19 08:40:03;;;;;;;2.27;1.10;;;;;;;;;;6217573;28;20501;-74
2022/02/19 08:43:24;;;;;;;1.60;1.00;;;;;;;;;;6218182;28;20332;-74
2022/02/19 08:46:44;;;;;;;3.57;1.20;;;;;;;;;;6214458;28;20324;-74
2022/02/19 08:50:06;;;;;;;2.97;1.33;;;;;;;;;;6218123;28;20256;-74
2022/02/19 08:53:27;;;;;;;1.87;1.00;;;;;;;;;;6214682;28;20631;-73
2022/02/19 08:56:50;;;;;;;0.87;0.87;;;;;;;;;;6213645;28;20225;-75
2022/02/19 09:00:12;;;;;;;3.30;1.43;;;;;;;;;;6222024;28;20316;-75
2022/02/19 09:03:32;;;;;;;0.70;0.70;;;;;;;;;;6219695;28;20248;-74
2022/02/19 09:06:53;;;;;;;1.93;0.93;;;;;;;;;;6213040;28;20225;-73
2022/02/19 09:10:15;;;;;;;1.53;0.80;;;;;;;;;;6214477;28;20261;-74
2022/02/19 09:13:37;;;;;;;1.37;0.87;;;;;;;;;;6214981;28;20241;-73
2022/02/19 09:16:57;;;;;;;1.57;0.60;;;;;;;;;;6213477;28;20279;-74
2022/02/19 09:20:19;;;;;;;0.50;0.50;;;;;;;;;;6217591;28;20225;-73
2022/02/19 09:23:39;;;;;;;0.50;0.50;;;;;;;;;;6215997;28;20241;-74
2022/02/19 09:27:01;;;;;;;1.73;0.90;;;;;;;;;;6212606;28;20232;-73
2022/02/19 09:30:22;;;;;;;0.40;0.40;;;;;;;;;;6214872;28;20241;-73
2022/02/19 09:33:43;;;;;;;0.40;0.40;;;;;;;;;;6200196;28;20427;-73
2022/02/19 09:37:04;;;;;;;1.03;0.53;;;;;;;;;;6215336;28;20502;-74
2022/02/19 09:40:25;;;;;;;0.80;0.80;;;;;;;;;;6217190;28;20316;-74
2022/02/19 09:43:45;;;;;;;0.50;0.47;;;;;;;;;;6219588;28;20229;-75
2022/02/19 09:47:07;;;;;;;1.80;1.00;;;;;;;;;;6217992;28;20229;-75
2022/02/19 09:50:28;;;;;;;1.30;0.93;;;;;;;;;;6214959;28;20229;-74
2022/02/19 09:53:49;;;;;;;2.00;0.90;;;;;;;;;;6210924;28;20517;-74
2022/02/19 09:57:09;;;;;;;4.77;1.30;;;;;;;;;;6213192;28;20225;-75
2022/02/19 10:00:37;;;;;;;2.80;1.37;;;;;;;;;;6215854;28;20626;-73
2022/02/19 10:04:01;;;;;;;2.30;1.13;;;;;;;;;;6216842;28;20241;-74
2022/02/19 10:07:22;;;;;;;4.43;2.57;;;;;;;;;;6214677;28;20241;-74
2022/02/19 10:10:48;;;;;;;3.17;1.90;;;;;;;;;;6216890;28;20228;-74
2022/02/19 10:14:21;;;;;;;3.27;1.37;;;;;;;;;;6216633;28;20862;-74
2022/02/19 10:17:42;;;;;;;2.97;1.30;;;;;;;;;;6204390;28;20232;-73
2022/02/19 10:21:12;;;;;;;2.87;1.43;;;;;;;;;;6213099;28;20241;-74
2022/02/19 10:24:35;;;;;;;3.27;1.20;;;;;;;;;;6215503;28;20751;-74
2022/02/19 10:27:57;;;;;;;2.27;1.60;;;;;;;;;;6219093;28;20245;-74
2022/02/19 10:31:18;;;;;;;1.73;1.20;;;;;;;;;;6199716;28;20237;-75
2022/02/19 10:34:53;;;;;;;3.90;1.77;;;;;;;;;;6221807;28;20686;-73
2022/02/19 10:38:15;;;;;;;5.23;1.47;;;;;;;;;;6214542;28;20245;-75
2022/02/19 10:41:37;;;;;;;3.53;1.90;;;;;;;;;;6215567;28;20236;-74
2022/02/19 10:44:58;;;;;;;5.93;3.07;;;;;;;;;;6213855;28;20948;-73
2022/02/19 10:48:20;;;;;;;5.80;2.57;;;;;;;;;;6215662;28;20647;-73
2022/02/19 10:51:41;;;;;;;8.37;2.43;;;;;;;;;;6214520;28;20241;-73
2022/02/19 10:55:04;;;;;;;8.83;2.23;;;;;;;;;;6209821;28;20257;-73
2022/02/19 10:58:25;;;;;;;7.63;2.33;;;;;;;;;;6210878;28;20237;-74
2022/02/19 11:01:46;;;;;;;5.33;2.67;;;;;;;;;;6213300;28;20228;-74
2022/02/19 11:05:08;;;;;;;7.60;3.40;;;;;;;;;;6210248;28;20233;-74
2022/02/19 11:08:29;;;;;;;8.53;2.63;;;;;;;;;;6214518;28;20602;-73
2022/02/19 11:11:50;;;;;;;4.83;2.60;;;;;;;;;;6214413;28;20233;-74
2022/02/19 11:15:12;;;;;;;9.63;2.30;;;;;;;;;;6216475;28;20229;-73
2022/02/19 11:18:32;;;;;;;4.77;2.10;;;;;;;;;;6210883;28;20225;-74
2022/02/19 11:21:54;;;;;;;4.63;2.00;;;;;;;;;;6214781;28;20229;-74
2022/02/19 11:25:15;;;;;;;5.80;2.00;;;;;;;;;;6209486;28;20225;-73
2022/02/19 11:28:38;;;;;;;5.20;1.93;;;;;;;;;;6201430;28;20505;-75
2022/02/19 11:32:02;;;;;;;4.90;1.77;;;;;;;;;;6211776;28;20232;-73
2022/02/19 11:35:32;;;;;;;5.90;1.90;;;;;;;;;;6200629;28;20589;-73
2022/02/19 11:38:54;;;;;;;5.33;1.50;;;;;;;;;;6215196;28;20227;-73
2022/02/19 11:42:19;;;;;;;5.57;2.20;;;;;;;;;;6202648;28;20229;-73
2022/02/19 11:45:41;;;;;;;4.10;1.47;;;;;;;;;;6221835;28;20237;-73
2022/02/19 11:49:18;;;;;;;5.97;2.37;;;;;;;;;;6215028;28;20257;-73
2022/02/19 11:52:39;;;;;;;4.97;1.77;;;;;;;;;;6204755;28;20685;-72
2022/02/19 11:56:00;;;;;;;3.10;1.73;;;;;;;;;;6213179;28;20233;-73
2022/02/19 11:59:23;;;;;;;2.80;1.60;;;;;;;;;;6213244;28;20592;-73
2022/02/19 12:02:45;;;;;;;4.13;1.70;;;;;;;;;;6208073;28;20240;-74
2022/02/19 12:06:06;;;;;;;5.07;2.20;;;;;;;;;;6215164;28;20291;-73
2022/02/19 12:09:27;;;;;;;6.17;2.03;;;;;;;;;;6213483;28;20492;-73
2022/02/19 12:13:06;;;;;;;6.00;1.60;;;;;;;;;;6202317;28;20520;-73
2022/02/19 12:16:42;;;;;;;4.77;2.20;;;;;;;;;;6219303;28;20228;-73
2022/02/19 12:20:06;;;;;;;7.20;2.67;;;;;;;;;;6217771;28;20572;-73
2022/02/19 12:23:44;;;;;;;2.67;2.07;;;;;;;;;;6220478;28;20486;-73
2022/02/19 12:27:11;;;;;;;6.23;2.20;;;;;;;;;;6216060;28;20347;-73
2022/02/19 12:30:31;;;;;;;6.30;2.70;;;;;;;;;;6217665;28;20229;-73
2022/02/19 12:33:53;;;;;;;4.93;2.77;;;;;;;;;;6214979;28;20228;-73
2022/02/19 12:37:15;;;;;;;6.30;2.07;;;;;;;;;;6211029;28;20229;-72
2022/02/19 12:40:36;;;;;;;9.13;2.70;;;;;;;;;;6216212;28;20233;-72
2022/02/19 12:44:02;;;;;;;8.57;2.30;;;;;;;;;;6218360;28;20245;-73
2022/02/19 12:47:23;;;;;;;9.97;2.30;;;;;;;;;;6211464;28;20602;-73
2022/02/19 12:50:52;;;;;;;5.47;1.73;;;;;;;;;;6214144;28;20240;-73
2022/02/19 12:54:31;;;;;;;4.87;2.03;;;;;;;;;;6216455;28;20220;-72
2022/02/19 12:57:52;;;;;;;5.03;3.73;;;;;;;;;;6220697;28;20221;-73
2022/02/19 13:01:12;;;;;;;7.80;2.70;;;;;;;;;;6224623;28;20572;-73
2022/02/19 13:04:35;;;;;;;6.47;3.47;;;;;;;;;;6218046;28;20237;-74
2022/02/19 13:07:55;;;;;;;4.50;2.27;;;;;;;;;;6217572;28;20232;-73
2022/02/19 13:11:17;;;;;;;7.33;2.83;;;;;;;;;;6215975;28;20221;-73
2022/02/19 13:14:49;;;;;;;5.53;2.13;;;;;;;;;;6216538;28;20229;-73
2022/02/19 13:18:09;;;;;;;11.40;3.37;;;;;;;;;;6194175;28;20240;-75
2022/02/19 13:21:33;;;;;;;10.60;4.17;;;;;;;;;;6216093;28;20257;-74
2022/02/19 13:24:54;;;;;;;8.70;2.73;;;;;;;;;;6213747;28;20543;-74
2022/02/19 13:28:16;;;;;;;7.80;3.20;;;;;;;;;;6214348;28;20892;-73
2022/02/19 13:31:37;;;;;;;10.90;2.97;;;;;;;;;;6216326;28;20249;-74
2022/02/19 13:34:59;;;;;;;6.27;2.90;;;;;;;;;;6212459;28;20499;-73
2022/02/19 13:38:27;;;;;;;12.00;3.20;;;;;;;;;;6216747;28;20233;-75
2022/02/19 13:41:50;;;;;;;7.03;2.77;;;;;;;;;;6205651;28;20602;-74
2022/02/19 13:45:25;;;;;;;10.50;3.00;;;;;;;;;;6205268;28;20233;-72
2022/02/19 13:48:50;;;;;;;5.27;2.13;;;;;;;;;;6215193;28;20237;-73
2022/02/19 13:52:23;;;;;;;9.23;2.60;;;;;;;;;;6216908;28;20626;-73
2022/02/19 13:55:45;;;;;;;7.13;2.37;;;;;;;;;;6211043;28;20229;-72
2022/02/19 13:59:06;;;;;;;10.63;2.43;;;;;;;;;;6213650;28;20229;-72
2022/02/19 14:02:28;;;;;;;5.03;2.43;;;;;;;;;;6210913;28;20229;-74
2022/02/19 14:05:49;;;;;;;4.27;3.00;;;;;;;;;;6216044;28;20222;-73
2022/02/19 14:09:10;;;;;;;7.43;3.00;;;;;;;;;;6214838;28;20222;-72
2022/02/19 14:12:34;;;;;;;7.67;2.43;;;;;;;;;;6217961;28;20323;-73
2022/02/19 14:15:54;;;;;;;6.93;2.27;;;;;;;;;;6191658;28;20217;-74
2022/02/19 14:19:16;;;;;;;8.23;2.30;;;;;;;;;;6218843;28;20269;-74
2022/02/19 14:22:38;;;;;;;3.87;2.03;;;;;;;;;;6186287;28;20232;-73
2022/02/19 14:25:59;;;;;;;8.00;3.30;;;;;;;;;;6213879;28;20256;-72
2022/02/19 14:29:20;;;;;;;8.80;3.00;;;;;;;;;;6215177;28;20237;-72
2022/02/19 14:32:40;;;;;;;5.17;1.80;;;;;;;;;;6216736;28;20252;-74
2022/02/19 14:36:02;;;;;;;6.17;2.73;;;;;;;;;;6213270;28;20228;-73
2022/02/19 14:39:23;;;;;;;7.67;2.27;;;;;;;;;;6214604;28;20253;-74
2022/02/19 14:42:44;;;;;;;7.47;2.20;;;;;;;;;;6215106;28;20654;-73
2022/02/19 14:46:05;;;;;;;8.37;3.30;;;;;;;;;;6214075;28;20263;-74
2022/02/19 14:49:26;;;;;;;6.53;2.77;;;;;;;;;;6210444;28;20236;-73
2022/02/19 14:52:48;;;;;;;6.43;2.77;;;;;;;;;;6216253;28;20267;-73
2022/02/19 14:56:08;;;;;;;5.57;2.93;;;;;;;;;;6207683;28;20229;-73
2022/02/19 14:59:29;;;;;;;8.10;3.60;;;;;;;;;;6214128;28;20233;-73
2022/02/19 15:02:50;;;;;;;4.93;2.10;;;;;;;;;;6217821;28;20222;-73
2022/02/19 15:06:11;;;;;;;10.23;3.73;;;;;;;;;;6209931;28;20241;-73
2022/02/19 15:09:32;;;;;;;8.23;3.47;;;;;;;;;;6206837;28;20229;-72
2022/02/19 15:12:53;;;;;;;6.00;2.43;;;;;;;;;;6216164;28;20225;-73
2022/02/19 15:16:14;;;;;;;7.60;3.77;;;;;;;;;;6219453;28;20566;-73
2022/02/19 15:19:34;;;;;;;6.63;3.90;;;;;;;;;;6221237;28;20249;-73
2022/02/19 15:22:56;;;;;;;5.50;3.30;;;;;;;;;;6216468;28;20226;-73
2022/02/19 15:26:18;;;;;;;10.03;3.70;;;;;;;;;;6213007;28;20233;-74
2022/02/19 15:29:41;;;;;;;6.13;3.20;;;;;;;;;;6214425;28;20237;-74
2022/02/19 15:33:01;;;;;;;11.93;2.97;;;;;;;;;;6217179;28;20233;-74
2022/02/19 15:36:22;;;;;;;6.33;2.40;;;;;;;;;;6212114;28;20232;-74
2022/02/19 15:39:43;;;;;;;9.47;3.67;;;;;;;;;;6208521;28;20233;-75
2022/02/19 15:43:04;;;;;;;13.47;5.03;;;;;;;;;;6213802;28;20388;-73
2022/02/19 15:46:26;;;;;;;7.97;3.23;;;;;;;;;;6213918;28;20497;-72
2022/02/19 15:49:46;;;;;;;6.07;3.93;;;;;;;;;;6211680;28;20543;-73
2022/02/19 15:53:07;;;;;;;8.17;3.40;;;;;;;;;;6213852;28;20315;-74
2022/02/19 15:56:30;;;;;;;6.60;2.83;;;;;;;;;;6207405;28;20228;-74
2022/02/19 15:59:52;;;;;;;11.47;3.27;;;;;;;;;;6208949;28;20228;-74
2022/02/19 16:03:12;;;;;;;7.90;2.37;;;;;;;;;;6202824;28;20276;-73
2022/02/19 16:06:33;;;;;;;14.60;3.90;;;;;;;;;;6219867;28;20222;-73
2022/02/19 16:09:54;;;;;;;8.17;2.30;;;;;;;;;;6218942;28;20312;-73
2022/02/19 16:13:15;;;;;;;4.53;2.23;;;;;;;;;;6218856;28;20221;-74
2022/02/19 16:16:37;;;;;;;5.97;2.43;;;;;;;;;;6217925;28;20232;-74
2022/02/19 16:19:58;;;;;;;5.93;2.30;;;;;;;;;;6220713;28;20248;-73
2022/02/19 16:23:18;;;;;;;5.50;2.57;;;;;;;;;;6218534;28;20237;-72
2022/02/19 16:26:40;;;;;;;10.07;3.40;;;;;;;;;;6210588;28;20512;-73
2022/02/19 16:30:00;;;;;;;10.40;4.10;;;;;;;;;;6216795;28;20229;-74
2022/02/19 16:33:22;;;;;;;11.67;4.73;;;;;;;;;;6224863;28;20610;-73
2022/02/19 16:36:43;;;;;;;4.23;2.43;;;;;;;;;;6205487;28;20238;-74
2022/02/19 16:40:04;;;;;;;5.00;2.73;;;;;;;;;;6214257;28;20284;-73
2022/02/19 16:43:25;;;;;;;6.80;2.53;;;;;;;;;;6218416;28;20586;-72
2022/02/19 16:46:45;;;;;;;9.27;4.23;;;;;;;;;;6218040;28;20319;-72
2022/02/19 16:50:10;;;;;;;7.80;2.57;;;;;;;;;;6218096;28;20237;-72
2022/02/19 16:53:30;;;;;;;8.33;2.97;;;;;;;;;;6215753;28;20261;-73
2022/02/19 16:56:51;;;;;;;6.17;2.20;;;;;;;;;;6217467;28;20229;-73
2022/02/19 17:00:13;;;;;;;9.93;3.30;;;;;;;;;;6216452;28;20241;-72
2022/02/19 17:03:33;;;;;;;7.67;2.43;;;;;;;;;;6214546;28;20304;-72
2022/02/19 17:06:57;;;;;;;6.53;2.60;;;;;;;;;;6216519;28;20225;-73
2022/02/19 17:10:18;;;;;;;8.90;3.47;;;;;;;;;;6216716;28;20229;-72
2022/02/19 17:13:39;;;;;;;7.30;3.13;;;;;;;;;;6215032;28;20662;-73
2022/02/19 17:16:59;;;;;;;7.07;3.50;;;;;;;;;;6218267;28;20549;-73
2022/02/19 17:20:20;;;;;;;4.37;2.60;;;;;;;;;;6212560;28;20595;-73
2022/02/19 17:23:42;;;;;;;7.63;2.80;;;;;;;;;;6215426;28;20328;-74
2022/02/19 17:27:04;;;;;;;6.70;2.60;;;;;;;;;;6216126;28;20552;-73
2022/02/19 17:30:24;;;;;;;11.73;3.33;;;;;;;;;;6217196;28;20240;-73
2022/02/19 17:33:45;;;;;;;4.80;2.20;;;;;;;;;;6220664;28;20242;-73
2022/02/19 17:37:05;;;;;;;5.93;2.20;;;;;;;;;;6216819;28;20229;-73
2022/02/19 17:40:28;;;;;;;5.13;2.90;;;;;;;;;;6215439;28;20240;-72
2022/02/19 17:43:48;;;;;;;4.67;1.73;;;;;;;;;;6213500;28;20237;-73
2022/02/19 17:47:10;;;;;;;4.93;2.70;;;;;;;;;;6215953;28;20229;-74
2022/02/19 17:50:30;;;;;;;10.70;3.27;;;;;;;;;;6211034;28;20237;-75
2022/02/19 17:53:51;;;;;;;5.13;2.00;;;;;;;;;;6214137;28;20221;-73
2022/02/19 17:57:13;;;;;;;7.00;2.90;;;;;;;;;;6214817;28;20237;-73
2022/02/19 18:00:34;;;;;;;13.17;3.50;;;;;;;;;;6214777;28;20259;-73
2022/02/19 18:03:54;;;;;;;5.67;2.60;;;;;;;;;;6216460;28;20229;-74
2022/02/19 18:07:15;;;;;;;7.63;2.80;;;;;;;;;;6215718;28;20252;-73
2022/02/19 18:10:36;;;;;;;6.83;2.00;;;;;;;;;;6213330;28;20233;-73
2022/02/19 18:13:58;;;;;;;8.53;2.33;;;;;;;;;;6208204;28;20493;-73
2022/02/19 18:17:19;;;;;;;7.30;2.67;;;;;;;;;;6217661;28;20225;-74
2022/02/19 18:20:39;;;;;;;6.67;2.20;;;;;;;;;;6205370;28;20238;-73
2022/02/19 18:24:06;;;;;;;6.70;3.60;;;;;;;;;;6215244;28;20221;-74
2022/02/19 18:27:27;;;;;;;6.73;2.87;;;;;;;;;;6198996;28;20229;-74
2022/02/19 18:30:49;;;;;;;6.70;2.37;;;;;;;;;;6215270;28;20703;-73
2022/02/19 18:34:10;;;;;;;6.67;2.80;;;;;;;;;;6214246;28;20229;-74
2022/02/19 18:37:30;;;;;;;3.43;2.00;;;;;;;;;;6219750;28;20792;-73
2022/02/19 18:40:52;;;;;;;5.63;2.90;;;;;;;;;;6212730;28;20682;-74
2022/02/19 18:44:12;;;;;;;8.73;2.27;;;;;;;;;;6215297;28;20229;-74
2022/02/19 18:47:36;;;;;;;5.57;1.90;;;;;;;;;;6212171;28;20225;-74
2022/02/19 18:50:57;;;;;;;4.93;2.07;;;;;;;;;;6213723;28;20595;-74
2022/02/19 18:54:19;;;;;;;7.43;2.60;;;;;;;;;;6211372;28;20939;-73
2022/02/19 18:57:40;;;;;;;7.73;2.90;;;;;;;;;;6211826;28;20228;-74
2022/02/19 19:01:00;;;;;;;4.80;2.53;;;;;;;;;;6212948;28;20225;-73
2022/02/19 19:04:22;;;;;;;5.07;2.07;;;;;;;;;;6214616;28;20236;-74
2022/02/19 19:07:42;;;;;;;4.97;2.07;;;;;;;;;;6214535;28;20241;-74
2022/02/19 19:11:03;;;;;;;7.17;3.30;;;;;;;;;;6214193;28;20722;-73
2022/02/19 19:14:24;;;;;;;4.90;2.30;;;;;;;;;;6215356;28;20229;-73
2022/02/19 19:17:46;;;;;;;5.20;2.73;;;;;;;;;;6213324;28;20229;-73
2022/02/19 19:21:08;;;;;;;10.77;3.83;;;;;;;;;;6215099;28;20228;-74
2022/02/19 19:24:29;;;;;;;4.70;2.20;;;;;;;;;;6210575;28;20229;-73
2022/02/19 19:27:49;;;;;;;7.33;2.30;;;;;;;;;;6216278;28;20245;-73
2022/02/19 19:31:10;;;;;;;8.47;2.57;;;;;;;;;;6210449;28;20229;-73
2022/02/19 19:34:31;;;;;;;5.73;2.77;;;;;;;;;;6216900;28;20316;-74
2022/02/19 19:37:53;;;;;;;4.50;1.77;;;;;;;;;;6215202;28;20249;-73
2022/02/19 19:41:17;;;;;;;6.00;2.67;;;;;;;;;;6210230;28;20606;-74
2022/02/19 19:44:39;;;;;;;6.70;2.70;;;;;;;;;;6218186;28;20237;-73
2022/02/19 19:47:59;;;;;;;7.03;2.20;;;;;;;;;;6216274;28;20229;-76
2022/02/19 19:51:20;;;;;;;6.57;2.07;;;;;;;;;;6214877;28;20827;-73
2022/02/19 19:54:42;;;;;;;6.30;2.60;;;;;;;;;;6206748;28;20244;-74
2022/02/19 19:58:03;;;;;;;9.67;2.63;;;;;;;;;;6217401;28;20232;-73
2022/02/19 20:01:23;;;;;;;5.87;2.10;;;;;;;;;;6215481;28;20221;-73
2022/02/19 20:04:44;;;;;;;9.27;4.13;;;;;;;;;;6205102;28;20225;-74
2022/02/19 20:08:05;;;;;;;5.20;3.00;;;;;;;;;;6214161;28;20261;-75
2022/02/19 20:11:28;;;;;;;5.00;2.37;;;;;;;;;;6206091;28;20668;-74
2022/02/19 20:14:48;;;;;;;4.80;2.57;;;;;;;;;;6209281;28;20805;-74
2022/02/19 20:18:09;;;;;;;4.40;2.70;;;;;;;;;;6212531;28;20222;-74
2022/02/19 20:21:29;;;;;;;6.23;2.93;;;;;;;;;;6212792;28;20320;-73